sensor_id;sensor_type;location;lat;lon;timestamp;temperature;humidity
62476;DHT22;50739;45.670;11.936;2024-02-26T00:04:36;7.89;90.97
62476;DHT22;50739;45.670;11.936;2024-02-26T00:09:40;8.01;90.71
62476;DHT22;50739;45.670;11.936;2024-02-26T00:14:42;7.97;90.43
62476;DHT22;50739;45.670;11.936;2024-02-26T00:19:46;7.98;90.55
62476;DHT22;50739;45.670;11.936;2024-02-26T00:24:50;8.00;90.39
62476;DHT22;50739;45.670;11.936;2024-02-26T00:29:53;8.08;89.93
62476;DHT22;50739;45.670;11.936;2024-02-26T00:34:55;8.03;90.25
62476;DHT22;50739;45.670;11.936;2024-02-26T00:39:59;7.91;90.42
62476;DHT22;50739;45.670;11.936;2024-02-26T00:45:01;7.87;90.59
62476;DHT22;50739;45.670;11.936;2024-02-26T00:50:05;7.83;90.87
62476;DHT22;50739;45.670;11.936;2024-02-26T00:55:09;7.82;90.68
62476;DHT22;50739;45.670;11.936;2024-02-26T01:00:13;7.80;90.87
62476;DHT22;50739;45.670;11.936;2024-02-26T01:05:15;7.79;90.87
62476;DHT22;50739;45.670;11.936;2024-02-26T01:10:19;7.77;90.98
62476;DHT22;50739;45.670;11.936;2024-02-26T01:15:22;7.79;90.69
62476;DHT22;50739;45.670;11.936;2024-02-26T01:20:24;7.69;90.93
62476;DHT22;50739;45.670;11.936;2024-02-26T01:25:29;7.72;91.11
62476;DHT22;50739;45.670;11.936;2024-02-26T01:30:31;7.74;90.79
62476;DHT22;50739;45.670;11.936;2024-02-26T01:35:33;7.90;90.53
62476;DHT22;50739;45.670;11.936;2024-02-26T01:40:38;7.94;89.94
62476;DHT22;50739;45.670;11.936;2024-02-26T01:45:41;7.98;90.01
62476;DHT22;50739;45.670;11.936;2024-02-26T01:50:43;8.03;90.11
62476;DHT22;50739;45.670;11.936;2024-02-26T01:55:47;8.00;90.48
62476;DHT22;50739;45.670;11.936;2024-02-26T02:00:49;7.93;90.39
62476;DHT22;50739;45.670;11.936;2024-02-26T02:05:52;7.91;89.96
62476;DHT22;50739;45.670;11.936;2024-02-26T02:10:56;7.97;90.29
62476;DHT22;50739;45.670;11.936;2024-02-26T02:15:59;7.98;90.65
62476;DHT22;50739;45.670;11.936;2024-02-26T02:21:03;7.93;90.24
62476;DHT22;50739;45.670;11.936;2024-02-26T02:26:06;7.90;90.34
62476;DHT22;50739;45.670;11.936;2024-02-26T02:31:08;7.86;90.31
62476;DHT22;50739;45.670;11.936;2024-02-26T02:36:12;7.82;90.37
62476;DHT22;50739;45.670;11.936;2024-02-26T02:41:15;7.77;90.70
62476;DHT22;50739;45.670;11.936;2024-02-26T02:46:17;7.67;90.65
62476;DHT22;50739;45.670;11.936;2024-02-26T02:51:21;7.52;90.83
62476;DHT22;50739;45.670;11.936;2024-02-26T02:56:23;7.49;91.38
62476;DHT22;50739;45.670;11.936;2024-02-26T03:01:26;7.48;90.95
62476;DHT22;50739;45.670;11.936;2024-02-26T03:06:29;7.27;91.26
62476;DHT22;50739;45.670;11.936;2024-02-26T03:11:32;7.21;91.13
62476;DHT22;50739;45.670;11.936;2024-02-26T03:16:34;7.25;91.22
62476;DHT22;50739;45.670;11.936;2024-02-26T03:21:38;7.11;91.34
62476;DHT22;50739;45.670;11.936;2024-02-26T03:26:40;7.03;91.41
62476;DHT22;50739;45.670;11.936;2024-02-26T03:31:42;6.98;91.46
62476;DHT22;50739;45.670;11.936;2024-02-26T03:36:46;6.91;91.45
62476;DHT22;50739;45.670;11.936;2024-02-26T03:41:49;6.81;91.79
62476;DHT22;50739;45.670;11.936;2024-02-26T03:46:51;6.94;91.01
62476;DHT22;50739;45.670;11.936;2024-02-26T03:51:55;6.90;90.78
62476;DHT22;50739;45.670;11.936;2024-02-26T03:56:57;6.80;91.48
62476;DHT22;50739;45.670;11.936;2024-02-26T04:01:59;6.75;92.65
62476;DHT22;50739;45.670;11.936;2024-02-26T04:07:04;6.79;92.84
62476;DHT22;50739;45.670;11.936;2024-02-26T04:12:07;6.86;92.83
62476;DHT22;50739;45.670;11.936;2024-02-26T04:17:09;6.93;92.48
62476;DHT22;50739;45.670;11.936;2024-02-26T04:22:13;6.91;92.28
62476;DHT22;50739;45.670;11.936;2024-02-26T04:27:16;6.86;92.66
62476;DHT22;50739;45.670;11.936;2024-02-26T04:32:18;6.84;92.52
62476;DHT22;50739;45.670;11.936;2024-02-26T04:37:22;6.79;92.65
62476;DHT22;50739;45.670;11.936;2024-02-26T04:42:24;6.83;92.64
62476;DHT22;50739;45.670;11.936;2024-02-26T04:47:26;6.84;92.87
62476;DHT22;50739;45.670;11.936;2024-02-26T04:52:30;6.90;92.24
62476;DHT22;50739;45.670;11.936;2024-02-26T04:57:33;6.86;92.62
62476;DHT22;50739;45.670;11.936;2024-02-26T05:02:35;6.90;92.63
62476;DHT22;50739;45.670;11.936;2024-02-26T05:07:41;7.05;91.98
62476;DHT22;50739;45.670;11.936;2024-02-26T05:12:44;6.91;92.41
62476;DHT22;50739;45.670;11.936;2024-02-26T05:17:46;6.80;92.84
62476;DHT22;50739;45.670;11.936;2024-02-26T05:22:50;6.79;92.86
62476;DHT22;50739;45.670;11.936;2024-02-26T05:27:53;6.89;92.38
62476;DHT22;50739;45.670;11.936;2024-02-26T05:32:55;7.01;91.98
62476;DHT22;50739;45.670;11.936;2024-02-26T05:37:59;7.10;91.98
62476;DHT22;50739;45.670;11.936;2024-02-26T05:43:01;7.07;92.25
62476;DHT22;50739;45.670;11.936;2024-02-26T05:48:04;7.18;91.84
62476;DHT22;50739;45.670;11.936;2024-02-26T05:53:08;7.22;91.71
62476;DHT22;50739;45.670;11.936;2024-02-26T05:58:10;7.24;91.30
62476;DHT22;50739;45.670;11.936;2024-02-26T06:03:13;7.12;91.90
62476;DHT22;50739;45.670;11.936;2024-02-26T06:08:17;7.19;91.41
62476;DHT22;50739;45.670;11.936;2024-02-26T06:13:19;7.11;91.77
62476;DHT22;50739;45.670;11.936;2024-02-26T06:18:21;7.18;91.66
62476;DHT22;50739;45.670;11.936;2024-02-26T06:23:26;7.18;91.45
62476;DHT22;50739;45.670;11.936;2024-02-26T06:28:28;7.10;92.06
62476;DHT22;50739;45.670;11.936;2024-02-26T06:33:33;7.28;92.04
62476;DHT22;50739;45.670;11.936;2024-02-26T06:38:37;7.38;91.76
62476;DHT22;50739;45.670;11.936;2024-02-26T06:43:39;7.34;91.76
62476;DHT22;50739;45.670;11.936;2024-02-26T06:48:44;7.36;91.58
62476;DHT22;50739;45.670;11.936;2024-02-26T06:53:48;7.36;91.65
62476;DHT22;50739;45.670;11.936;2024-02-26T06:58:51;7.46;91.39
62476;DHT22;50739;45.670;11.936;2024-02-26T07:03:53;7.61;91.09
62476;DHT22;50739;45.670;11.936;2024-02-26T07:08:57;7.65;91.05
62476;DHT22;50739;45.670;11.936;2024-02-26T07:13:59;7.67;91.36
62476;DHT22;50739;45.670;11.936;2024-02-26T07:19:02;7.80;90.94
62476;DHT22;50739;45.670;11.936;2024-02-26T07:24:07;7.86;91.09
62476;DHT22;50739;45.670;11.936;2024-02-26T07:29:09;7.93;90.79
62476;DHT22;50739;45.670;11.936;2024-02-26T07:34:11;7.90;91.01
62476;DHT22;50739;45.670;11.936;2024-02-26T07:39:15;7.95;90.92
62476;DHT22;50739;45.670;11.936;2024-02-26T07:44:18;8.10;90.25
62476;DHT22;50739;45.670;11.936;2024-02-26T07:49:20;8.08;90.54
62476;DHT22;50739;45.670;11.936;2024-02-26T07:54:25;8.04;90.79
62476;DHT22;50739;45.670;11.936;2024-02-26T07:59:27;8.21;90.52
62476;DHT22;50739;45.670;11.936;2024-02-26T08:04:30;8.28;90.42
62476;DHT22;50739;45.670;11.936;2024-02-26T08:09:33;8.38;90.40
62476;DHT22;50739;45.670;11.936;2024-02-26T08:14:36;8.41;90.09
62476;DHT22;50739;45.670;11.936;2024-02-26T08:19:38;8.59;89.92
62476;DHT22;50739;45.670;11.936;2024-02-26T08:24:42;8.69;89.40
62476;DHT22;50739;45.670;11.936;2024-02-26T08:29:45;8.66;88.92
62476;DHT22;50739;45.670;11.936;2024-02-26T08:34:47;8.77;89.01
62476;DHT22;50739;45.670;11.936;2024-02-26T08:39:52;8.84;88.63
62476;DHT22;50739;45.670;11.936;2024-02-26T08:44:55;8.96;88.42
62476;DHT22;50739;45.670;11.936;2024-02-26T08:49:57;9.00;89.17
62476;DHT22;50739;45.670;11.936;2024-02-26T08:55:04;8.93;88.39
62476;DHT22;50739;45.670;11.936;2024-02-26T09:00:08;9.03;88.58
62476;DHT22;50739;45.670;11.936;2024-02-26T09:05:10;9.10;88.07
62476;DHT22;50739;45.670;11.936;2024-02-26T09:10:17;9.13;88.46
62476;DHT22;50739;45.670;11.936;2024-02-26T09:15:19;9.13;89.16
62476;DHT22;50739;45.670;11.936;2024-02-26T09:20:21;9.20;88.75
62476;DHT22;50739;45.670;11.936;2024-02-26T09:25:25;9.18;88.52
62476;DHT22;50739;45.670;11.936;2024-02-26T09:30:28;9.28;88.20
62476;DHT22;50739;45.670;11.936;2024-02-26T09:35:31;9.53;87.66
62476;DHT22;50739;45.670;11.936;2024-02-26T09:40:34;9.62;87.39
62476;DHT22;50739;45.670;11.936;2024-02-26T09:45:38;9.75;87.52
62476;DHT22;50739;45.670;11.936;2024-02-26T09:50:41;9.85;86.88
62476;DHT22;50739;45.670;11.936;2024-02-26T09:55:46;9.96;86.00
62476;DHT22;50739;45.670;11.936;2024-02-26T10:00:51;10.06;85.15
62476;DHT22;50739;45.670;11.936;2024-02-26T10:05:57;10.06;85.30
62476;DHT22;50739;45.670;11.936;2024-02-26T10:11:08;10.20;84.53
62476;DHT22;50739;45.670;11.936;2024-02-26T10:16:12;10.27;84.95
62476;DHT22;50739;45.670;11.936;2024-02-26T10:21:16;10.38;84.89
62476;DHT22;50739;45.670;11.936;2024-02-26T10:26:20;10.41;85.04
62476;DHT22;50739;45.670;11.936;2024-02-26T10:31:23;10.40;85.13
62476;DHT22;50739;45.670;11.936;2024-02-26T10:36:26;10.47;85.39
62476;DHT22;50739;45.670;11.936;2024-02-26T10:41:30;10.44;85.34
62476;DHT22;50739;45.670;11.936;2024-02-26T10:46:32;10.44;85.35
62476;DHT22;50739;45.670;11.936;2024-02-26T10:51:37;10.37;84.89
62476;DHT22;50739;45.670;11.936;2024-02-26T10:56:42;10.44;84.53
62476;DHT22;50739;45.670;11.936;2024-02-26T11:01:44;10.45;84.61
62476;DHT22;50739;45.670;11.936;2024-02-26T11:06:49;10.44;85.06
62476;DHT22;50739;45.670;11.936;2024-02-26T11:11:53;10.41;84.75
62476;DHT22;50739;45.670;11.936;2024-02-26T11:16:57;10.52;85.00
62476;DHT22;50739;45.670;11.936;2024-02-26T11:22:00;10.75;84.91
62476;DHT22;50739;45.670;11.936;2024-02-26T11:27:05;10.83;84.28
62476;DHT22;50739;45.670;11.936;2024-02-26T11:32:08;10.84;84.36
62476;DHT22;50739;45.670;11.936;2024-02-26T11:37:11;10.97;83.83
62476;DHT22;50739;45.670;11.936;2024-02-26T11:42:15;10.83;83.02
62476;DHT22;50739;45.670;11.936;2024-02-26T11:47:19;10.93;82.91
62476;DHT22;50739;45.670;11.936;2024-02-26T11:52:21;10.84;82.90
62476;DHT22;50739;45.670;11.936;2024-02-26T11:57:27;10.83;83.36
62476;DHT22;50739;45.670;11.936;2024-02-26T12:02:40;10.95;82.59
62476;DHT22;50739;45.670;11.936;2024-02-26T12:07:44;11.03;83.03
62476;DHT22;50739;45.670;11.936;2024-02-26T12:12:49;10.89;82.83
62476;DHT22;50739;45.670;11.936;2024-02-26T12:17:52;10.96;82.75
62476;DHT22;50739;45.670;11.936;2024-02-26T12:22:56;11.09;82.44
62476;DHT22;50739;45.670;11.936;2024-02-26T12:28:00;11.00;82.84
62476;DHT22;50739;45.670;11.936;2024-02-26T12:33:03;11.19;82.56
62476;DHT22;50739;45.670;11.936;2024-02-26T12:38:05;11.19;81.89
62476;DHT22;50739;45.670;11.936;2024-02-26T12:43:09;11.31;81.97
62476;DHT22;50739;45.670;11.936;2024-02-26T12:48:14;11.35;81.69
62476;DHT22;50739;45.670;11.936;2024-02-26T12:53:17;11.52;81.93
62476;DHT22;50739;45.670;11.936;2024-02-26T12:58:21;11.59;80.64
62476;DHT22;50739;45.670;11.936;2024-02-26T13:03:25;11.68;79.46
62476;DHT22;50739;45.670;11.936;2024-02-26T13:08:28;11.85;80.45
62476;DHT22;50739;45.670;11.936;2024-02-26T13:13:32;11.93;79.41
62476;DHT22;50739;45.670;11.936;2024-02-26T13:18:34;12.06;78.64
62476;DHT22;50739;45.670;11.936;2024-02-26T13:23:37;11.99;78.37
62476;DHT22;50739;45.670;11.936;2024-02-26T13:28:42;11.95;76.82
62476;DHT22;50739;45.670;11.936;2024-02-26T13:33:46;11.90;76.73
62476;DHT22;50739;45.670;11.936;2024-02-26T13:38:53;11.81;77.71
62476;DHT22;50739;45.670;11.936;2024-02-26T13:43:57;11.71;78.38
62476;DHT22;50739;45.670;11.936;2024-02-26T13:48:59;11.82;76.88
62476;DHT22;50739;45.670;11.936;2024-02-26T13:54:02;11.78;77.58
62476;DHT22;50739;45.670;11.936;2024-02-26T13:59:06;11.71;77.49
62476;DHT22;50739;45.670;11.936;2024-02-26T14:04:08;11.74;78.03
62476;DHT22;50739;45.670;11.936;2024-02-26T14:09:11;11.79;77.35
62476;DHT22;50739;45.670;11.936;2024-02-26T14:14:20;11.71;75.90
62476;DHT22;50739;45.670;11.936;2024-02-26T14:19:23;11.67;76.25
62476;DHT22;50739;45.670;11.936;2024-02-26T14:24:25;11.59;76.30
62476;DHT22;50739;45.670;11.936;2024-02-26T14:29:29;11.48;77.45
62476;DHT22;50739;45.670;11.936;2024-02-26T14:34:31;11.50;78.57
62476;DHT22;50739;45.670;11.936;2024-02-26T14:39:34;11.51;79.34
62476;DHT22;50739;45.670;11.936;2024-02-26T14:44:37;11.44;81.02
62476;DHT22;50739;45.670;11.936;2024-02-26T14:49:40;11.23;83.04
62476;DHT22;50739;45.670;11.936;2024-02-26T14:54:42;11.24;83.97
62476;DHT22;50739;45.670;11.936;2024-02-26T14:59:49;11.03;79.43
62476;DHT22;50739;45.670;11.936;2024-02-26T15:04:51;10.93;81.94
62476;DHT22;50739;45.670;11.936;2024-02-26T15:09:54;10.71;84.38
62476;DHT22;50739;45.670;11.936;2024-02-26T15:14:59;10.65;85.88
62476;DHT22;50739;45.670;11.936;2024-02-26T15:20:05;10.65;86.71
62476;DHT22;50739;45.670;11.936;2024-02-26T15:25:11;10.73;86.35
62476;DHT22;50739;45.670;11.936;2024-02-26T15:30:16;10.64;88.11
62476;DHT22;50739;45.670;11.936;2024-02-26T15:35:18;10.62;87.71
62476;DHT22;50739;45.670;11.936;2024-02-26T15:40:21;10.56;88.68
62476;DHT22;50739;45.670;11.936;2024-02-26T15:45:25;10.44;88.91
62476;DHT22;50739;45.670;11.936;2024-02-26T15:50:29;10.24;90.10
62476;DHT22;50739;45.670;11.936;2024-02-26T15:55:31;10.22;90.35
62476;DHT22;50739;45.670;11.936;2024-02-26T16:00:39;10.17;90.59
62476;DHT22;50739;45.670;11.936;2024-02-26T16:05:41;9.94;91.07
62476;DHT22;50739;45.670;11.936;2024-02-26T16:10:43;10.06;90.86
62476;DHT22;50739;45.670;11.936;2024-02-26T16:15:51;9.87;91.88
62476;DHT22;50739;45.670;11.936;2024-02-26T16:20:55;9.89;91.40
62476;DHT22;50739;45.670;11.936;2024-02-26T16:25:58;9.80;91.36
62476;DHT22;50739;45.670;11.936;2024-02-26T16:31:02;9.71;92.49
62476;DHT22;50739;45.670;11.936;2024-02-26T16:36:05;9.68;93.15
62476;DHT22;50739;45.670;11.936;2024-02-26T16:41:07;9.68;93.51
62476;DHT22;50739;45.670;11.936;2024-02-26T16:46:11;9.69;93.76
62476;DHT22;50739;45.670;11.936;2024-02-26T16:51:16;9.65;93.96
62476;DHT22;50739;45.670;11.936;2024-02-26T16:56:18;9.73;93.26
62476;DHT22;50739;45.670;11.936;2024-02-26T17:01:22;9.71;92.92
62476;DHT22;50739;45.670;11.936;2024-02-26T17:06:24;9.66;92.59
62476;DHT22;50739;45.670;11.936;2024-02-26T17:11:27;9.55;92.91
62476;DHT22;50739;45.670;11.936;2024-02-26T17:16:32;9.51;92.83
62476;DHT22;50739;45.670;11.936;2024-02-26T17:21:37;9.38;93.58
62476;DHT22;50739;45.670;11.936;2024-02-26T17:26:39;9.51;92.57
62476;DHT22;50739;45.670;11.936;2024-02-26T17:31:44;9.46;92.56
62476;DHT22;50739;45.670;11.936;2024-02-26T17:36:47;9.41;93.76
62476;DHT22;50739;45.670;11.936;2024-02-26T17:41:49;9.32;93.68
62476;DHT22;50739;45.670;11.936;2024-02-26T17:46:53;9.46;92.21
62476;DHT22;50739;45.670;11.936;2024-02-26T17:51:56;9.30;93.06
62476;DHT22;50739;45.670;11.936;2024-02-26T17:56:58;9.30;93.13
62476;DHT22;50739;45.670;11.936;2024-02-26T18:02:02;9.17;92.82
62476;DHT22;50739;45.670;11.936;2024-02-26T18:07:05;9.13;93.01
62476;DHT22;50739;45.670;11.936;2024-02-26T18:12:12;9.21;92.61
62476;DHT22;50739;45.670;11.936;2024-02-26T18:17:17;8.96;93.95
62476;DHT22;50739;45.670;11.936;2024-02-26T18:22:23;9.01;93.55
62476;DHT22;50739;45.670;11.936;2024-02-26T18:27:25;9.03;93.44
62476;DHT22;50739;45.670;11.936;2024-02-26T18:32:33;8.93;94.07
62476;DHT22;50739;45.670;11.936;2024-02-26T18:37:35;8.86;94.47
62476;DHT22;50739;45.670;11.936;2024-02-26T18:42:38;8.88;93.87
62476;DHT22;50739;45.670;11.936;2024-02-26T18:47:42;8.97;93.53
62476;DHT22;50739;45.670;11.936;2024-02-26T18:52:44;8.96;92.52
62476;DHT22;50739;45.670;11.936;2024-02-26T18:57:48;8.86;92.91
62476;DHT22;50739;45.670;11.936;2024-02-26T19:02:52;8.86;92.61
62476;DHT22;50739;45.670;11.936;2024-02-26T19:07:55;8.83;91.78
62476;DHT22;50739;45.670;11.936;2024-02-26T19:12:59;9.07;91.21
62476;DHT22;50739;45.670;11.936;2024-02-26T19:18:03;9.11;91.50
62476;DHT22;50739;45.670;11.936;2024-02-26T19:23:07;8.99;91.56
62476;DHT22;50739;45.670;11.936;2024-02-26T19:28:10;8.90;91.40
62476;DHT22;50739;45.670;11.936;2024-02-26T19:33:15;8.76;92.03
62476;DHT22;50739;45.670;11.936;2024-02-26T19:38:17;8.94;90.73
62476;DHT22;50739;45.670;11.936;2024-02-26T19:43:20;8.81;90.85
62476;DHT22;50739;45.670;11.936;2024-02-26T19:48:24;8.88;90.75
62476;DHT22;50739;45.670;11.936;2024-02-26T19:53:26;8.79;91.10
62476;DHT22;50739;45.670;11.936;2024-02-26T19:58:28;8.79;91.82
62476;DHT22;50739;45.670;11.936;2024-02-26T20:03:32;8.76;91.52
62476;DHT22;50739;45.670;11.936;2024-02-26T20:08:35;8.87;91.08
62476;DHT22;50739;45.670;11.936;2024-02-26T20:13:38;8.88;91.16
62476;DHT22;50739;45.670;11.936;2024-02-26T20:18:44;8.91;90.44
62476;DHT22;50739;45.670;11.936;2024-02-26T20:23:49;8.93;90.86
62476;DHT22;50739;45.670;11.936;2024-02-26T20:28:53;8.93;90.93
62476;DHT22;50739;45.670;11.936;2024-02-26T20:33:58;8.80;91.34
62476;DHT22;50739;45.670;11.936;2024-02-26T20:39:02;8.90;91.21
62476;DHT22;50739;45.670;11.936;2024-02-26T20:44:06;8.84;91.32
62476;DHT22;50739;45.670;11.936;2024-02-26T20:49:11;8.81;90.75
62476;DHT22;50739;45.670;11.936;2024-02-26T20:54:14;8.87;90.59
62476;DHT22;50739;45.670;11.936;2024-02-26T20:59:18;8.87;90.41
62476;DHT22;50739;45.670;11.936;2024-02-26T21:04:22;8.86;90.93
62476;DHT22;50739;45.670;11.936;2024-02-26T21:09:24;8.93;90.45
62476;DHT22;50739;45.670;11.936;2024-02-26T21:14:27;8.84;90.84
62476;DHT22;50739;45.670;11.936;2024-02-26T21:19:31;8.84;90.42
62476;DHT22;50739;45.670;11.936;2024-02-26T21:24:33;8.87;89.99
62476;DHT22;50739;45.670;11.936;2024-02-26T21:29:39;8.84;90.44
62476;DHT22;50739;45.670;11.936;2024-02-26T21:34:43;8.90;89.50
62476;DHT22;50739;45.670;11.936;2024-02-26T21:39:46;8.94;89.35
62476;DHT22;50739;45.670;11.936;2024-02-26T21:44:48;8.93;89.85
62476;DHT22;50739;45.670;11.936;2024-02-26T21:49:52;8.99;88.87
62476;DHT22;50739;45.670;11.936;2024-02-26T21:54:55;9.03;88.54
62476;DHT22;50739;45.670;11.936;2024-02-26T21:59:57;8.96;89.04
62476;DHT22;50739;45.670;11.936;2024-02-26T22:05:01;9.06;88.89
62476;DHT22;50739;45.670;11.936;2024-02-26T22:10:04;9.11;89.00
62476;DHT22;50739;45.670;11.936;2024-02-26T22:15:08;9.23;89.35
62476;DHT22;50739;45.670;11.936;2024-02-26T22:20:13;9.27;89.27
62476;DHT22;50739;45.670;11.936;2024-02-26T22:25:18;9.31;89.40
62476;DHT22;50739;45.670;11.936;2024-02-26T22:30:20;9.45;89.50
62476;DHT22;50739;45.670;11.936;2024-02-26T22:35:24;9.45;89.17
62476;DHT22;50739;45.670;11.936;2024-02-26T22:40:27;9.46;88.81
62476;DHT22;50739;45.670;11.936;2024-02-26T22:45:29;9.55;88.28
62476;DHT22;50739;45.670;11.936;2024-02-26T22:50:33;9.58;88.84
62476;DHT22;50739;45.670;11.936;2024-02-26T22:55:35;9.59;88.82
62476;DHT22;50739;45.670;11.936;2024-02-26T23:00:38;9.69;89.21
62476;DHT22;50739;45.670;11.936;2024-02-26T23:05:42;9.63;88.86
62476;DHT22;50739;45.670;11.936;2024-02-26T23:10:44;9.61;89.20
62476;DHT22;50739;45.670;11.936;2024-02-26T23:15:47;9.58;89.50
62476;DHT22;50739;45.670;11.936;2024-02-26T23:20:55;9.44;89.71
62476;DHT22;50739;45.670;11.936;2024-02-26T23:25:57;9.38;89.92
62476;DHT22;50739;45.670;11.936;2024-02-26T23:31:00;9.32;90.59
62476;DHT22;50739;45.670;11.936;2024-02-26T23:36:07;9.25;90.99
62476;DHT22;50739;45.670;11.936;2024-02-26T23:41:09;9.27;91.29
62476;DHT22;50739;45.670;11.936;2024-02-26T23:46:12;9.24;91.51
62476;DHT22;50739;45.670;11.936;2024-02-26T23:51:16;9.32;91.82
62476;DHT22;50739;45.670;11.936;2024-02-26T23:56:18;9.48;92.08
